sensor_id;sensor_type;location;lat;lon;timestamp;P1;durP1;ratioP1;P2;durP2;ratioP2
14203;SDS011;7185;51.854;6.622;2023-01-29T00:00:18;42.55;;;16.20;;
14203;SDS011;7185;51.854;6.622;2023-01-29T00:02:50;39.65;;;16.20;;
14203;SDS011;7185;51.854;6.622;2023-01-29T00:05:22;43.47;;;18.25;;
14203;SDS011;7185;51.854;6.622;2023-01-29T00:07:55;46.10;;;17.50;;
14203;SDS011;7185;51.854;6.622;2023-01-29T00:10:27;45.15;;;17.85;;
14203;SDS011;7185;51.854;6.622;2023-01-29T00:12:59;41.95;;;16.63;;
14203;SDS011;7185;51.854;6.622;2023-01-29T00:15:30;45.00;;;18.48;;
14203;SDS011;7185;51.854;6.622;2023-01-29T00:18:02;43.25;;;18.33;;
14203;SDS011;7185;51.854;6.622;2023-01-29T00:20:33;47.55;;;17.90;;
14203;SDS011;7185;51.854;6.622;2023-01-29T00:23:06;42.20;;;16.80;;
14203;SDS011;7185;51.854;6.622;2023-01-29T00:25:38;47.47;;;19.42;;
14203;SDS011;7185;51.854;6.622;2023-01-29T00:28:09;40.33;;;16.70;;
14203;SDS011;7185;51.854;6.622;2023-01-29T00:30:41;43.88;;;17.73;;
14203;SDS011;7185;51.854;6.622;2023-01-29T00:33:13;41.33;;;17.50;;
14203;SDS011;7185;51.854;6.622;2023-01-29T00:35:44;45.88;;;18.23;;
14203;SDS011;7185;51.854;6.622;2023-01-29T00:38:17;41.63;;;16.30;;
14203;SDS011;7185;51.854;6.622;2023-01-29T00:40:49;41.95;;;17.27;;
14203;SDS011;7185;51.854;6.622;2023-01-29T00:43:38;51.83;;;19.25;;
14203;SDS011;7185;51.854;6.622;2023-01-29T00:46:27;42.78;;;17.08;;
14203;SDS011;7185;51.854;6.622;2023-01-29T00:48:58;40.97;;;17.05;;
14203;SDS011;7185;51.854;6.622;2023-01-29T00:51:30;39.88;;;17.23;;
14203;SDS011;7185;51.854;6.622;2023-01-29T00:54:03;41.78;;;17.90;;
14203;SDS011;7185;51.854;6.622;2023-01-29T00:56:36;42.30;;;17.00;;
14203;SDS011;7185;51.854;6.622;2023-01-29T00:59:08;43.60;;;17.73;;
14203;SDS011;7185;51.854;6.622;2023-01-29T01:01:39;43.20;;;16.73;;
14203;SDS011;7185;51.854;6.622;2023-01-29T01:04:29;41.75;;;16.63;;
14203;SDS011;7185;51.854;6.622;2023-01-29T01:07:00;41.95;;;17.10;;
14203;SDS011;7185;51.854;6.622;2023-01-29T01:09:34;42.22;;;17.58;;
14203;SDS011;7185;51.854;6.622;2023-01-29T01:12:32;41.40;;;16.73;;
14203;SDS011;7185;51.854;6.622;2023-01-29T01:15:04;41.47;;;17.35;;
14203;SDS011;7185;51.854;6.622;2023-01-29T01:17:36;44.17;;;17.90;;
14203;SDS011;7185;51.854;6.622;2023-01-29T01:20:09;42.22;;;16.70;;
14203;SDS011;7185;51.854;6.622;2023-01-29T01:22:41;40.67;;;16.90;;
14203;SDS011;7185;51.854;6.622;2023-01-29T01:25:14;38.67;;;16.55;;
14203;SDS011;7185;51.854;6.622;2023-01-29T01:27:46;47.80;;;17.67;;
14203;SDS011;7185;51.854;6.622;2023-01-29T01:30:18;40.95;;;17.48;;
14203;SDS011;7185;51.854;6.622;2023-01-29T01:32:49;41.63;;;17.25;;
14203;SDS011;7185;51.854;6.622;2023-01-29T01:35:21;40.47;;;16.77;;
14203;SDS011;7185;51.854;6.622;2023-01-29T01:37:52;36.75;;;16.67;;
14203;SDS011;7185;51.854;6.622;2023-01-29T01:40:25;42.65;;;16.27;;
14203;SDS011;7185;51.854;6.622;2023-01-29T01:42:57;42.65;;;16.63;;
14203;SDS011;7185;51.854;6.622;2023-01-29T01:45:31;42.55;;;17.38;;
14203;SDS011;7185;51.854;6.622;2023-01-29T01:48:04;40.53;;;16.02;;
14203;SDS011;7185;51.854;6.622;2023-01-29T01:50:43;44.13;;;16.35;;
14203;SDS011;7185;51.854;6.622;2023-01-29T01:53:20;40.58;;;16.20;;
14203;SDS011;7185;51.854;6.622;2023-01-29T01:55:58;40.78;;;16.17;;
14203;SDS011;7185;51.854;6.622;2023-01-29T01:58:34;39.83;;;16.08;;
14203;SDS011;7185;51.854;6.622;2023-01-29T02:01:10;42.67;;;17.02;;
14203;SDS011;7185;51.854;6.622;2023-01-29T02:03:42;46.25;;;17.40;;
14203;SDS011;7185;51.854;6.622;2023-01-29T02:06:35;41.90;;;16.55;;
14203;SDS011;7185;51.854;6.622;2023-01-29T02:09:29;42.70;;;17.35;;
14203;SDS011;7185;51.854;6.622;2023-01-29T02:12:07;40.22;;;17.08;;
14203;SDS011;7185;51.854;6.622;2023-01-29T02:17:14;47.72;;;17.17;;
14203;SDS011;7185;51.854;6.622;2023-01-29T02:19:49;39.28;;;16.67;;
14203;SDS011;7185;51.854;6.622;2023-01-29T02:22:50;43.85;;;17.50;;
14203;SDS011;7185;51.854;6.622;2023-01-29T02:25:39;44.15;;;17.27;;
14203;SDS011;7185;51.854;6.622;2023-01-29T02:28:32;44.97;;;16.85;;
14203;SDS011;7185;51.854;6.622;2023-01-29T02:31:11;43.17;;;17.25;;
14203;SDS011;7185;51.854;6.622;2023-01-29T02:33:55;44.83;;;17.30;;
14203;SDS011;7185;51.854;6.622;2023-01-29T02:36:37;41.05;;;16.30;;
14203;SDS011;7185;51.854;6.622;2023-01-29T02:39:16;39.05;;;17.02;;
14203;SDS011;7185;51.854;6.622;2023-01-29T02:41:57;43.13;;;16.77;;
14203;SDS011;7185;51.854;6.622;2023-01-29T02:44:40;43.85;;;16.65;;
14203;SDS011;7185;51.854;6.622;2023-01-29T02:47:18;43.88;;;17.10;;
14203;SDS011;7185;51.854;6.622;2023-01-29T02:49:56;44.67;;;17.63;;
14203;SDS011;7185;51.854;6.622;2023-01-29T02:52:34;46.50;;;18.63;;
14203;SDS011;7185;51.854;6.622;2023-01-29T02:55:12;45.42;;;17.35;;
14203;SDS011;7185;51.854;6.622;2023-01-29T02:57:50;42.58;;;17.38;;
14203;SDS011;7185;51.854;6.622;2023-01-29T03:00:29;47.53;;;16.52;;
14203;SDS011;7185;51.854;6.622;2023-01-29T03:03:08;44.05;;;17.10;;
14203;SDS011;7185;51.854;6.622;2023-01-29T03:05:47;44.65;;;18.00;;
14203;SDS011;7185;51.854;6.622;2023-01-29T03:08:26;41.80;;;18.10;;
14203;SDS011;7185;51.854;6.622;2023-01-29T03:11:12;41.03;;;16.95;;
14203;SDS011;7185;51.854;6.622;2023-01-29T03:13:46;45.25;;;18.90;;
14203;SDS011;7185;51.854;6.622;2023-01-29T03:16:26;45.85;;;18.02;;
14203;SDS011;7185;51.854;6.622;2023-01-29T03:19:04;46.58;;;18.38;;
14203;SDS011;7185;51.854;6.622;2023-01-29T03:21:39;47.33;;;18.02;;
14203;SDS011;7185;51.854;6.622;2023-01-29T03:24:28;48.75;;;17.55;;
14203;SDS011;7185;51.854;6.622;2023-01-29T03:27:23;46.35;;;17.70;;
14203;SDS011;7185;51.854;6.622;2023-01-29T03:30:17;45.00;;;18.05;;
14203;SDS011;7185;51.854;6.622;2023-01-29T03:33:08;43.90;;;16.58;;
14203;SDS011;7185;51.854;6.622;2023-01-29T03:35:42;48.63;;;19.05;;
14203;SDS011;7185;51.854;6.622;2023-01-29T03:38:21;47.28;;;18.55;;
14203;SDS011;7185;51.854;6.622;2023-01-29T03:41:01;45.05;;;17.02;;
14203;SDS011;7185;51.854;6.622;2023-01-29T03:43:39;46.13;;;17.95;;
14203;SDS011;7185;51.854;6.622;2023-01-29T03:46:21;42.97;;;18.73;;
14203;SDS011;7185;51.854;6.622;2023-01-29T03:49:00;45.33;;;18.58;;
14203;SDS011;7185;51.854;6.622;2023-01-29T03:51:40;45.55;;;17.38;;
14203;SDS011;7185;51.854;6.622;2023-01-29T03:54:22;48.25;;;18.48;;
14203;SDS011;7185;51.854;6.622;2023-01-29T03:56:58;41.88;;;17.58;;
14203;SDS011;7185;51.854;6.622;2023-01-29T03:59:35;42.70;;;17.75;;
14203;SDS011;7185;51.854;6.622;2023-01-29T04:02:12;45.83;;;17.33;;
14203;SDS011;7185;51.854;6.622;2023-01-29T04:07:23;43.95;;;17.40;;
14203;SDS011;7185;51.854;6.622;2023-01-29T04:09:57;47.33;;;18.73;;
14203;SDS011;7185;51.854;6.622;2023-01-29T04:12:34;42.27;;;17.87;;
14203;SDS011;7185;51.854;6.622;2023-01-29T04:15:10;49.97;;;17.45;;
14203;SDS011;7185;51.854;6.622;2023-01-29T04:17:46;47.92;;;18.65;;
14203;SDS011;7185;51.854;6.622;2023-01-29T04:20:23;41.55;;;16.63;;
14203;SDS011;7185;51.854;6.622;2023-01-29T04:22:54;51.92;;;20.02;;
14203;SDS011;7185;51.854;6.622;2023-01-29T04:25:27;47.50;;;18.15;;
14203;SDS011;7185;51.854;6.622;2023-01-29T04:28:06;45.95;;;18.33;;
14203;SDS011;7185;51.854;6.622;2023-01-29T04:30:51;43.60;;;18.05;;
14203;SDS011;7185;51.854;6.622;2023-01-29T04:33:28;46.00;;;18.42;;
14203;SDS011;7185;51.854;6.622;2023-01-29T04:36:15;49.90;;;19.20;;
14203;SDS011;7185;51.854;6.622;2023-01-29T04:38:57;45.95;;;17.80;;
14203;SDS011;7185;51.854;6.622;2023-01-29T04:41:39;48.92;;;18.63;;
14203;SDS011;7185;51.854;6.622;2023-01-29T04:44:19;45.10;;;17.98;;
14203;SDS011;7185;51.854;6.622;2023-01-29T04:46:56;44.38;;;19.95;;
14203;SDS011;7185;51.854;6.622;2023-01-29T04:49:37;45.38;;;18.15;;
14203;SDS011;7185;51.854;6.622;2023-01-29T04:52:19;42.45;;;16.98;;
14203;SDS011;7185;51.854;6.622;2023-01-29T04:55:02;44.30;;;18.30;;
14203;SDS011;7185;51.854;6.622;2023-01-29T04:57:41;43.67;;;17.88;;
14203;SDS011;7185;51.854;6.622;2023-01-29T05:00:17;41.60;;;18.23;;
14203;SDS011;7185;51.854;6.622;2023-01-29T05:02:51;45.75;;;19.40;;
14203;SDS011;7185;51.854;6.622;2023-01-29T05:05:23;47.03;;;17.23;;
14203;SDS011;7185;51.854;6.622;2023-01-29T05:07:56;45.70;;;19.00;;
14203;SDS011;7185;51.854;6.622;2023-01-29T05:10:29;47.05;;;19.02;;
14203;SDS011;7185;51.854;6.622;2023-01-29T05:13:01;46.30;;;19.17;;
14203;SDS011;7185;51.854;6.622;2023-01-29T05:15:37;48.15;;;18.73;;
14203;SDS011;7185;51.854;6.622;2023-01-29T05:18:10;47.13;;;19.08;;
14203;SDS011;7185;51.854;6.622;2023-01-29T05:20:42;44.42;;;17.30;;
14203;SDS011;7185;51.854;6.622;2023-01-29T05:23:16;48.10;;;18.58;;
14203;SDS011;7185;51.854;6.622;2023-01-29T05:25:50;45.90;;;18.48;;
14203;SDS011;7185;51.854;6.622;2023-01-29T05:28:22;45.63;;;18.38;;
14203;SDS011;7185;51.854;6.622;2023-01-29T05:30:53;45.35;;;19.10;;
14203;SDS011;7185;51.854;6.622;2023-01-29T05:33:27;51.08;;;19.05;;
14203;SDS011;7185;51.854;6.622;2023-01-29T05:36:00;48.10;;;19.70;;
14203;SDS011;7185;51.854;6.622;2023-01-29T05:38:32;44.90;;;19.17;;
14203;SDS011;7185;51.854;6.622;2023-01-29T05:41:04;44.65;;;18.17;;
14203;SDS011;7185;51.854;6.622;2023-01-29T05:43:36;44.97;;;18.58;;
14203;SDS011;7185;51.854;6.622;2023-01-29T05:46:07;42.03;;;17.58;;
14203;SDS011;7185;51.854;6.622;2023-01-29T05:48:39;50.10;;;17.65;;
14203;SDS011;7185;51.854;6.622;2023-01-29T05:51:11;43.65;;;18.05;;
14203;SDS011;7185;51.854;6.622;2023-01-29T05:53:44;40.63;;;17.27;;
14203;SDS011;7185;51.854;6.622;2023-01-29T05:56:15;47.83;;;18.45;;
14203;SDS011;7185;51.854;6.622;2023-01-29T05:58:47;47.75;;;19.65;;
14203;SDS011;7185;51.854;6.622;2023-01-29T06:01:21;39.30;;;16.17;;
14203;SDS011;7185;51.854;6.622;2023-01-29T06:03:54;47.70;;;19.02;;
14203;SDS011;7185;51.854;6.622;2023-01-29T06:06:26;46.45;;;17.42;;
14203;SDS011;7185;51.854;6.622;2023-01-29T06:08:59;48.25;;;19.52;;
14203;SDS011;7185;51.854;6.622;2023-01-29T06:11:30;49.70;;;18.98;;
14203;SDS011;7185;51.854;6.622;2023-01-29T06:14:02;45.38;;;18.52;;
14203;SDS011;7185;51.854;6.622;2023-01-29T06:16:33;48.33;;;19.83;;
14203;SDS011;7185;51.854;6.622;2023-01-29T06:19:05;45.33;;;19.23;;
14203;SDS011;7185;51.854;6.622;2023-01-29T06:21:36;49.40;;;20.30;;
14203;SDS011;7185;51.854;6.622;2023-01-29T06:24:09;47.92;;;19.95;;
14203;SDS011;7185;51.854;6.622;2023-01-29T06:26:41;44.65;;;19.95;;
14203;SDS011;7185;51.854;6.622;2023-01-29T06:29:13;51.22;;;20.83;;
14203;SDS011;7185;51.854;6.622;2023-01-29T06:31:47;50.33;;;20.20;;
14203;SDS011;7185;51.854;6.622;2023-01-29T06:34:19;51.88;;;20.85;;
14203;SDS011;7185;51.854;6.622;2023-01-29T06:36:50;54.05;;;22.63;;
14203;SDS011;7185;51.854;6.622;2023-01-29T06:39:23;50.63;;;20.48;;
14203;SDS011;7185;51.854;6.622;2023-01-29T06:41:55;44.03;;;18.88;;
14203;SDS011;7185;51.854;6.622;2023-01-29T06:44:26;51.83;;;20.70;;
14203;SDS011;7185;51.854;6.622;2023-01-29T06:46:58;49.92;;;21.20;;
14203;SDS011;7185;51.854;6.622;2023-01-29T06:49:29;53.88;;;21.17;;
14203;SDS011;7185;51.854;6.622;2023-01-29T06:52:01;53.58;;;21.98;;
14203;SDS011;7185;51.854;6.622;2023-01-29T06:54:34;55.17;;;20.95;;
14203;SDS011;7185;51.854;6.622;2023-01-29T06:57:05;53.42;;;21.60;;
14203;SDS011;7185;51.854;6.622;2023-01-29T06:59:37;50.45;;;21.50;;
14203;SDS011;7185;51.854;6.622;2023-01-29T07:02:08;52.67;;;20.83;;
14203;SDS011;7185;51.854;6.622;2023-01-29T07:04:40;46.60;;;18.35;;
14203;SDS011;7185;51.854;6.622;2023-01-29T07:07:11;53.05;;;20.23;;
14203;SDS011;7185;51.854;6.622;2023-01-29T07:09:44;51.97;;;21.05;;
14203;SDS011;7185;51.854;6.622;2023-01-29T07:12:16;46.80;;;19.35;;
14203;SDS011;7185;51.854;6.622;2023-01-29T07:14:53;47.17;;;19.50;;
14203;SDS011;7185;51.854;6.622;2023-01-29T07:17:25;47.92;;;19.27;;
14203;SDS011;7185;51.854;6.622;2023-01-29T07:19:56;48.28;;;21.13;;
14203;SDS011;7185;51.854;6.622;2023-01-29T07:22:28;51.50;;;20.73;;
14203;SDS011;7185;51.854;6.622;2023-01-29T07:25:01;48.63;;;20.92;;
14203;SDS011;7185;51.854;6.622;2023-01-29T07:27:32;50.38;;;21.13;;
14203;SDS011;7185;51.854;6.622;2023-01-29T07:30:11;57.88;;;22.90;;
14203;SDS011;7185;51.854;6.622;2023-01-29T07:32:44;50.58;;;20.77;;
14203;SDS011;7185;51.854;6.622;2023-01-29T07:35:16;51.47;;;20.75;;
14203;SDS011;7185;51.854;6.622;2023-01-29T07:37:47;53.25;;;20.85;;
14203;SDS011;7185;51.854;6.622;2023-01-29T07:40:21;47.88;;;20.50;;
14203;SDS011;7185;51.854;6.622;2023-01-29T07:42:56;51.60;;;21.52;;
14203;SDS011;7185;51.854;6.622;2023-01-29T07:45:28;52.35;;;20.70;;
14203;SDS011;7185;51.854;6.622;2023-01-29T07:48:00;54.08;;;20.98;;
14203;SDS011;7185;51.854;6.622;2023-01-29T07:50:34;52.40;;;19.40;;
14203;SDS011;7185;51.854;6.622;2023-01-29T07:53:06;49.03;;;21.45;;
14203;SDS011;7185;51.854;6.622;2023-01-29T07:55:41;46.85;;;19.88;;
14203;SDS011;7185;51.854;6.622;2023-01-29T07:58:14;51.10;;;20.85;;
14203;SDS011;7185;51.854;6.622;2023-01-29T08:00:45;51.75;;;20.52;;
14203;SDS011;7185;51.854;6.622;2023-01-29T08:03:17;52.85;;;21.10;;
14203;SDS011;7185;51.854;6.622;2023-01-29T08:05:50;49.83;;;21.17;;
14203;SDS011;7185;51.854;6.622;2023-01-29T08:08:21;47.65;;;21.48;;
14203;SDS011;7185;51.854;6.622;2023-01-29T08:10:54;55.28;;;22.30;;
14203;SDS011;7185;51.854;6.622;2023-01-29T08:13:26;50.13;;;22.20;;
14203;SDS011;7185;51.854;6.622;2023-01-29T08:15:58;50.88;;;21.70;;
14203;SDS011;7185;51.854;6.622;2023-01-29T08:18:31;55.30;;;21.45;;
14203;SDS011;7185;51.854;6.622;2023-01-29T08:21:02;53.70;;;20.42;;
14203;SDS011;7185;51.854;6.622;2023-01-29T08:23:34;57.03;;;21.70;;
14203;SDS011;7185;51.854;6.622;2023-01-29T08:26:08;48.60;;;19.40;;
14203;SDS011;7185;51.854;6.622;2023-01-29T08:31:18;51.22;;;20.83;;
14203;SDS011;7185;51.854;6.622;2023-01-29T08:36:25;55.25;;;21.20;;
14203;SDS011;7185;51.854;6.622;2023-01-29T08:38:57;56.35;;;22.23;;
14203;SDS011;7185;51.854;6.622;2023-01-29T08:41:30;52.70;;;22.00;;
14203;SDS011;7185;51.854;6.622;2023-01-29T08:44:01;52.38;;;20.60;;
14203;SDS011;7185;51.854;6.622;2023-01-29T08:46:33;53.83;;;21.88;;
14203;SDS011;7185;51.854;6.622;2023-01-29T08:49:06;50.83;;;21.10;;
14203;SDS011;7185;51.854;6.622;2023-01-29T08:51:37;55.97;;;22.60;;
14203;SDS011;7185;51.854;6.622;2023-01-29T08:54:09;53.40;;;21.63;;
14203;SDS011;7185;51.854;6.622;2023-01-29T08:56:42;53.42;;;22.90;;
14203;SDS011;7185;51.854;6.622;2023-01-29T08:59:14;56.28;;;22.40;;
14203;SDS011;7185;51.854;6.622;2023-01-29T09:01:45;55.13;;;24.33;;
14203;SDS011;7185;51.854;6.622;2023-01-29T09:04:17;64.60;;;26.70;;
14203;SDS011;7185;51.854;6.622;2023-01-29T09:06:49;55.50;;;21.50;;
14203;SDS011;7185;51.854;6.622;2023-01-29T09:09:20;55.22;;;22.70;;
14203;SDS011;7185;51.854;6.622;2023-01-29T09:11:53;55.03;;;23.55;;
14203;SDS011;7185;51.854;6.622;2023-01-29T09:14:25;52.92;;;22.30;;
14203;SDS011;7185;51.854;6.622;2023-01-29T09:19:31;56.72;;;22.73;;
14203;SDS011;7185;51.854;6.622;2023-01-29T09:22:03;57.88;;;23.05;;
14203;SDS011;7185;51.854;6.622;2023-01-29T09:24:34;53.58;;;20.95;;
14203;SDS011;7185;51.854;6.622;2023-01-29T09:27:08;51.50;;;21.10;;
14203;SDS011;7185;51.854;6.622;2023-01-29T09:29:40;59.35;;;22.63;;
14203;SDS011;7185;51.854;6.622;2023-01-29T09:32:13;53.38;;;21.27;;
14203;SDS011;7185;51.854;6.622;2023-01-29T09:34:44;56.55;;;21.00;;
14203;SDS011;7185;51.854;6.622;2023-01-29T09:37:16;55.90;;;22.25;;
14203;SDS011;7185;51.854;6.622;2023-01-29T09:39:49;50.15;;;20.42;;
14203;SDS011;7185;51.854;6.622;2023-01-29T09:42:24;53.42;;;21.70;;
14203;SDS011;7185;51.854;6.622;2023-01-29T09:45:01;48.95;;;20.48;;
14203;SDS011;7185;51.854;6.622;2023-01-29T09:47:36;50.70;;;22.60;;
14203;SDS011;7185;51.854;6.622;2023-01-29T09:50:11;49.35;;;20.33;;
14203;SDS011;7185;51.854;6.622;2023-01-29T09:52:48;50.45;;;21.23;;
14203;SDS011;7185;51.854;6.622;2023-01-29T09:55:24;50.33;;;21.53;;
14203;SDS011;7185;51.854;6.622;2023-01-29T09:58:02;52.92;;;19.88;;
14203;SDS011;7185;51.854;6.622;2023-01-29T10:00:43;50.55;;;20.08;;
14203;SDS011;7185;51.854;6.622;2023-01-29T10:03:26;47.85;;;19.25;;
14203;SDS011;7185;51.854;6.622;2023-01-29T10:06:14;49.13;;;20.85;;
14203;SDS011;7185;51.854;6.622;2023-01-29T10:09:07;51.20;;;20.65;;
14203;SDS011;7185;51.854;6.622;2023-01-29T10:12:10;52.58;;;22.33;;
14203;SDS011;7185;51.854;6.622;2023-01-29T10:14:55;47.75;;;19.90;;
14203;SDS011;7185;51.854;6.622;2023-01-29T10:17:38;49.83;;;20.25;;
14203;SDS011;7185;51.854;6.622;2023-01-29T10:20:27;58.70;;;24.50;;
14203;SDS011;7185;51.854;6.622;2023-01-29T10:23:19;55.00;;;22.05;;
14203;SDS011;7185;51.854;6.622;2023-01-29T10:25:54;55.90;;;24.35;;
14203;SDS011;7185;51.854;6.622;2023-01-29T10:28:27;52.53;;;23.42;;
14203;SDS011;7185;51.854;6.622;2023-01-29T10:31:06;53.15;;;20.70;;
14203;SDS011;7185;51.854;6.622;2023-01-29T10:33:40;54.60;;;22.30;;
14203;SDS011;7185;51.854;6.622;2023-01-29T10:36:14;51.47;;;21.05;;
14203;SDS011;7185;51.854;6.622;2023-01-29T10:38:51;47.40;;;19.58;;
14203;SDS011;7185;51.854;6.622;2023-01-29T10:41:28;52.65;;;21.80;;
14203;SDS011;7185;51.854;6.622;2023-01-29T10:44:14;61.10;;;22.85;;
14203;SDS011;7185;51.854;6.622;2023-01-29T10:46:58;48.05;;;20.70;;
14203;SDS011;7185;51.854;6.622;2023-01-29T10:49:49;49.03;;;19.73;;
14203;SDS011;7185;51.854;6.622;2023-01-29T10:52:34;52.15;;;21.50;;
14203;SDS011;7185;51.854;6.622;2023-01-29T10:55:19;51.58;;;21.33;;
14203;SDS011;7185;51.854;6.622;2023-01-29T10:58:06;49.33;;;20.17;;
14203;SDS011;7185;51.854;6.622;2023-01-29T11:00:49;45.15;;;19.70;;
14203;SDS011;7185;51.854;6.622;2023-01-29T11:03:24;46.88;;;21.17;;
14203;SDS011;7185;51.854;6.622;2023-01-29T11:06:00;48.42;;;19.85;;
14203;SDS011;7185;51.854;6.622;2023-01-29T11:08:42;52.00;;;20.23;;
14203;SDS011;7185;51.854;6.622;2023-01-29T11:11:35;50.45;;;19.77;;
14203;SDS011;7185;51.854;6.622;2023-01-29T11:14:15;47.70;;;19.67;;
14203;SDS011;7185;51.854;6.622;2023-01-29T11:16:51;45.70;;;19.33;;
14203;SDS011;7185;51.854;6.622;2023-01-29T11:19:36;46.47;;;19.30;;
14203;SDS011;7185;51.854;6.622;2023-01-29T11:22:11;46.15;;;19.63;;
14203;SDS011;7185;51.854;6.622;2023-01-29T11:24:45;51.65;;;19.85;;
14203;SDS011;7185;51.854;6.622;2023-01-29T11:27:20;46.30;;;19.52;;
14203;SDS011;7185;51.854;6.622;2023-01-29T11:29:55;43.00;;;18.08;;
14203;SDS011;7185;51.854;6.622;2023-01-29T11:32:28;42.78;;;17.90;;
14203;SDS011;7185;51.854;6.622;2023-01-29T11:35:06;45.83;;;19.60;;
14203;SDS011;7185;51.854;6.622;2023-01-29T11:37:51;49.17;;;19.58;;
14203;SDS011;7185;51.854;6.622;2023-01-29T11:43:27;44.15;;;18.50;;
14203;SDS011;7185;51.854;6.622;2023-01-29T11:46:00;44.42;;;18.60;;
14203;SDS011;7185;51.854;6.622;2023-01-29T11:48:39;47.00;;;20.35;;
14203;SDS011;7185;51.854;6.622;2023-01-29T11:51:21;46.80;;;19.17;;
14203;SDS011;7185;51.854;6.622;2023-01-29T11:53:55;46.80;;;19.35;;
14203;SDS011;7185;51.854;6.622;2023-01-29T11:56:31;43.22;;;18.45;;
14203;SDS011;7185;51.854;6.622;2023-01-29T11:59:16;47.30;;;18.38;;
14203;SDS011;7185;51.854;6.622;2023-01-29T12:02:21;42.83;;;18.48;;
14203;SDS011;7185;51.854;6.622;2023-01-29T12:05:05;46.67;;;18.95;;
14203;SDS011;7185;51.854;6.622;2023-01-29T12:07:47;47.58;;;18.10;;
14203;SDS011;7185;51.854;6.622;2023-01-29T12:10:28;41.75;;;20.05;;
14203;SDS011;7185;51.854;6.622;2023-01-29T12:13:05;44.20;;;17.98;;
14203;SDS011;7185;51.854;6.622;2023-01-29T12:15:48;44.35;;;19.63;;
14203;SDS011;7185;51.854;6.622;2023-01-29T12:18:41;49.08;;;20.05;;
14203;SDS011;7185;51.854;6.622;2023-01-29T12:21:18;46.22;;;19.40;;
14203;SDS011;7185;51.854;6.622;2023-01-29T12:24:02;43.13;;;19.52;;
14203;SDS011;7185;51.854;6.622;2023-01-29T12:26:43;43.83;;;19.13;;
14203;SDS011;7185;51.854;6.622;2023-01-29T12:29:26;46.30;;;19.65;;
14203;SDS011;7185;51.854;6.622;2023-01-29T12:32:10;44.75;;;19.80;;
14203;SDS011;7185;51.854;6.622;2023-01-29T12:34:51;48.92;;;19.02;;
14203;SDS011;7185;51.854;6.622;2023-01-29T12:37:31;48.38;;;19.02;;
14203;SDS011;7185;51.854;6.622;2023-01-29T12:40:17;45.03;;;18.85;;
14203;SDS011;7185;51.854;6.622;2023-01-29T12:42:54;47.17;;;19.92;;
14203;SDS011;7185;51.854;6.622;2023-01-29T12:45:34;44.35;;;19.00;;
14203;SDS011;7185;51.854;6.622;2023-01-29T12:48:08;48.75;;;19.65;;
14203;SDS011;7185;51.854;6.622;2023-01-29T12:50:44;45.42;;;18.67;;
14203;SDS011;7185;51.854;6.622;2023-01-29T12:53:21;45.63;;;20.38;;
14203;SDS011;7185;51.854;6.622;2023-01-29T12:55:58;41.60;;;17.88;;
14203;SDS011;7185;51.854;6.622;2023-01-29T12:58:34;44.17;;;18.48;;
14203;SDS011;7185;51.854;6.622;2023-01-29T13:01:15;40.65;;;18.10;;
14203;SDS011;7185;51.854;6.622;2023-01-29T13:04:02;42.30;;;18.70;;
14203;SDS011;7185;51.854;6.622;2023-01-29T13:06:37;46.70;;;19.42;;
14203;SDS011;7185;51.854;6.622;2023-01-29T13:09:12;43.78;;;18.13;;
14203;SDS011;7185;51.854;6.622;2023-01-29T13:11:51;42.95;;;19.73;;
14203;SDS011;7185;51.854;6.622;2023-01-29T13:14:29;45.88;;;19.50;;
14203;SDS011;7185;51.854;6.622;2023-01-29T13:17:09;40.80;;;17.42;;
14203;SDS011;7185;51.854;6.622;2023-01-29T13:19:48;42.72;;;17.67;;
14203;SDS011;7185;51.854;6.622;2023-01-29T13:22:23;43.70;;;18.80;;
14203;SDS011;7185;51.854;6.622;2023-01-29T13:24:57;44.97;;;19.70;;
14203;SDS011;7185;51.854;6.622;2023-01-29T13:27:33;43.30;;;18.63;;
14203;SDS011;7185;51.854;6.622;2023-01-29T13:30:14;43.25;;;17.88;;
14203;SDS011;7185;51.854;6.622;2023-01-29T13:32:55;41.35;;;18.85;;
14203;SDS011;7185;51.854;6.622;2023-01-29T13:35:38;43.88;;;17.85;;
14203;SDS011;7185;51.854;6.622;2023-01-29T13:38:21;43.92;;;17.48;;
14203;SDS011;7185;51.854;6.622;2023-01-29T13:40:55;50.20;;;18.88;;
14203;SDS011;7185;51.854;6.622;2023-01-29T13:43:34;43.72;;;18.98;;
14203;SDS011;7185;51.854;6.622;2023-01-29T13:46:09;38.65;;;17.52;;
14203;SDS011;7185;51.854;6.622;2023-01-29T13:48:43;40.78;;;17.67;;
14203;SDS011;7185;51.854;6.622;2023-01-29T13:51:19;40.70;;;17.33;;
14203;SDS011;7185;51.854;6.622;2023-01-29T13:53:53;41.97;;;17.30;;
14203;SDS011;7185;51.854;6.622;2023-01-29T13:56:28;43.78;;;18.15;;
14203;SDS011;7185;51.854;6.622;2023-01-29T13:59:22;40.22;;;17.58;;
14203;SDS011;7185;51.854;6.622;2023-01-29T14:02:02;40.47;;;17.95;;
14203;SDS011;7185;51.854;6.622;2023-01-29T14:04:49;41.38;;;18.85;;
14203;SDS011;7185;51.854;6.622;2023-01-29T14:07:38;40.28;;;18.42;;
14203;SDS011;7185;51.854;6.622;2023-01-29T14:10:20;46.40;;;19.33;;
14203;SDS011;7185;51.854;6.622;2023-01-29T14:19:05;47.33;;;19.55;;
14203;SDS011;7185;51.854;6.622;2023-01-29T14:21:37;43.95;;;19.48;;
14203;SDS011;7185;51.854;6.622;2023-01-29T14:24:14;43.78;;;19.38;;
14203;SDS011;7185;51.854;6.622;2023-01-29T14:27:00;41.30;;;18.90;;
14203;SDS011;7185;51.854;6.622;2023-01-29T14:29:41;44.95;;;18.45;;
14203;SDS011;7185;51.854;6.622;2023-01-29T14:32:17;42.10;;;18.17;;
14203;SDS011;7185;51.854;6.622;2023-01-29T14:34:52;53.25;;;21.08;;
14203;SDS011;7185;51.854;6.622;2023-01-29T14:37:31;47.05;;;20.58;;
14203;SDS011;7185;51.854;6.622;2023-01-29T14:40:12;47.22;;;20.35;;
14203;SDS011;7185;51.854;6.622;2023-01-29T14:42:54;43.75;;;20.30;;
14203;SDS011;7185;51.854;6.622;2023-01-29T14:45:29;46.72;;;20.60;;
14203;SDS011;7185;51.854;6.622;2023-01-29T14:48:16;43.67;;;20.33;;
14203;SDS011;7185;51.854;6.622;2023-01-29T14:51:08;48.17;;;20.63;;
14203;SDS011;7185;51.854;6.622;2023-01-29T14:53:54;46.58;;;21.42;;
14203;SDS011;7185;51.854;6.622;2023-01-29T14:56:35;48.38;;;21.65;;
14203;SDS011;7185;51.854;6.622;2023-01-29T14:59:12;47.80;;;21.55;;
14203;SDS011;7185;51.854;6.622;2023-01-29T15:01:50;47.15;;;22.10;;
14203;SDS011;7185;51.854;6.622;2023-01-29T15:04:31;49.75;;;22.70;;
14203;SDS011;7185;51.854;6.622;2023-01-29T15:07:13;51.85;;;24.65;;
14203;SDS011;7185;51.854;6.622;2023-01-29T15:09:51;48.88;;;22.50;;
14203;SDS011;7185;51.854;6.622;2023-01-29T15:12:30;52.65;;;24.38;;
14203;SDS011;7185;51.854;6.622;2023-01-29T15:15:09;48.47;;;21.90;;
14203;SDS011;7185;51.854;6.622;2023-01-29T15:17:48;54.08;;;24.58;;
14203;SDS011;7185;51.854;6.622;2023-01-29T15:20:29;50.53;;;24.00;;
14203;SDS011;7185;51.854;6.622;2023-01-29T15:23:21;56.45;;;21.58;;
14203;SDS011;7185;51.854;6.622;2023-01-29T15:25:56;47.33;;;21.42;;
14203;SDS011;7185;51.854;6.622;2023-01-29T15:28:33;48.05;;;20.50;;
14203;SDS011;7185;51.854;6.622;2023-01-29T15:31:06;46.47;;;21.08;;
14203;SDS011;7185;51.854;6.622;2023-01-29T15:36:17;48.92;;;21.98;;
14203;SDS011;7185;51.854;6.622;2023-01-29T15:39:05;46.78;;;19.80;;
14203;SDS011;7185;51.854;6.622;2023-01-29T15:41:44;46.22;;;21.10;;
14203;SDS011;7185;51.854;6.622;2023-01-29T15:44:17;43.47;;;19.27;;
14203;SDS011;7185;51.854;6.622;2023-01-29T15:46:51;53.63;;;21.48;;
14203;SDS011;7185;51.854;6.622;2023-01-29T15:49:28;45.20;;;19.95;;
14203;SDS011;7185;51.854;6.622;2023-01-29T15:52:21;49.05;;;19.45;;
14203;SDS011;7185;51.854;6.622;2023-01-29T15:54:56;44.17;;;20.67;;